createdAt,value
2022-11-24T00:01:22.070Z,100190.88
2022-11-24T00:04:20.929Z,100196.13
2022-11-24T00:06:47.679Z,100192.63
2022-11-24T00:09:14.334Z,100184.91
2022-11-24T00:11:43.251Z,100177.97
2022-11-24T00:14:10.151Z,100181.47
2022-11-24T00:16:38.035Z,100186.72
2022-11-24T00:19:09.779Z,100194.56
2022-11-24T00:21:37.841Z,100211.97
2022-11-24T00:24:04.710Z,100219.00
2022-11-24T00:26:33.677Z,100217.22
2022-11-24T00:29:04.427Z,100223.31
2022-11-24T00:31:41.299Z,100220.66
2022-11-24T00:34:11.455Z,100218.94
2022-11-24T00:36:38.540Z,100207.59
2022-11-24T00:39:12.143Z,100208.41
2022-11-24T00:41:39.448Z,100210.09
2022-11-24T00:44:09.030Z,100225.66
2022-11-24T00:46:39.288Z,100221.31
2022-11-24T00:49:06.783Z,100223.09
2022-11-24T00:51:33.600Z,100215.34
2022-11-24T00:54:02.055Z,100222.25
2022-11-24T00:56:32.725Z,100223.06
2022-11-24T00:58:59.263Z,100229.88
2022-11-24T01:01:28.759Z,100233.28
2022-11-24T01:03:56.088Z,100245.38
2022-11-24T01:06:27.079Z,100243.50
2022-11-24T01:08:54.653Z,100255.59
2022-11-24T01:11:24.488Z,100262.47
2022-11-24T01:13:57.912Z,100264.16
2022-11-24T01:16:33.830Z,100251.94
2022-11-24T01:19:01.061Z,100248.44
2022-11-24T01:21:27.668Z,100257.06
2022-11-24T01:23:54.342Z,100263.91
2022-11-24T01:26:27.152Z,100263.84
2022-11-24T01:29:00.608Z,100268.09
2022-11-24T01:31:29.527Z,100263.84
2022-11-24T01:33:58.597Z,100268.09
2022-11-24T01:36:25.094Z,100267.19
2022-11-24T01:38:52.012Z,100261.91
2022-11-24T01:41:23.890Z,100267.97
2022-11-24T01:43:55.231Z,100273.06
2022-11-24T01:46:27.963Z,100275.66
2022-11-24T01:49:14.150Z,100272.13
2022-11-24T01:51:48.490Z,100273.91
2022-11-24T01:54:26.250Z,100278.25
2022-11-24T01:56:57.463Z,100280.09
2022-11-24T01:59:25.709Z,100273.22
2022-11-24T02:01:53.619Z,100271.53
2022-11-24T02:04:24.092Z,100285.56
2022-11-24T02:06:52.694Z,100283.91
2022-11-24T02:09:26.531Z,100284.00
2022-11-24T02:11:56.257Z,100290.97
2022-11-24T02:14:28.356Z,100285.81
2022-11-24T02:16:55.211Z,100284.28
2022-11-24T02:19:42.915Z,100279.16
2022-11-24T02:22:18.757Z,100287.84
2022-11-24T02:25:32.947Z,100293.97
2022-11-24T02:28:03.135Z,100295.03
2022-11-24T02:30:30.664Z,100293.34
2022-11-24T02:32:58.007Z,100307.31
2022-11-24T02:35:27.849Z,100297.88
2022-11-24T02:37:57.406Z,100291.78
2022-11-24T02:40:26.851Z,100301.41
2022-11-24T02:43:11.371Z,100297.13
2022-11-24T02:45:37.974Z,100293.69
2022-11-24T02:48:05.641Z,100306.69
2022-11-24T02:50:32.767Z,100299.72
2022-11-24T02:52:59.595Z,100298.88
2022-11-24T02:55:28.850Z,100292.81
2022-11-24T02:57:59.975Z,100296.22
2022-11-24T03:00:26.578Z,100302.28
2022-11-24T03:02:53.822Z,100311.78
2022-11-24T03:05:20.330Z,100313.50
2022-11-24T03:07:47.218Z,100306.50
2022-11-24T03:10:14.077Z,100313.50
2022-11-24T03:12:40.620Z,100309.19
2022-11-24T03:15:10.442Z,100312.75
2022-11-24T03:17:39.919Z,100302.41
2022-11-24T03:20:07.473Z,100293.72
2022-11-24T03:22:34.109Z,100303.22
2022-11-24T03:25:01.151Z,100304.16
2022-11-24T03:27:27.866Z,100309.44
2022-11-24T03:29:57.985Z,100312.97
2022-11-24T03:32:24.890Z,100311.31
2022-11-24T03:34:51.658Z,100305.28
2022-11-24T03:37:19.150Z,100314.81
2022-11-24T03:39:45.689Z,100313.09
2022-11-24T03:42:12.240Z,100318.25
2022-11-24T03:44:41.469Z,100319.94
2022-11-24T03:47:08.447Z,100324.31
2022-11-24T03:49:35.516Z,100321.72
2022-11-24T03:52:07.626Z,100322.56
2022-11-24T03:54:34.937Z,100331.28
2022-11-24T03:57:04.385Z,100336.50
2022-11-24T03:59:35.061Z,100343.41
2022-11-24T04:02:01.996Z,100344.31
2022-11-24T04:04:28.589Z,100340.81
2022-11-24T04:06:56.043Z,100352.09
2022-11-24T04:09:26.190Z,100352.94
2022-11-24T04:12:11.670Z,100353.72
2022-11-24T04:14:38.302Z,100352.81
2022-11-24T04:17:06.036Z,100365.81
2022-11-24T04:19:32.547Z,100362.41
2022-11-24T04:21:59.369Z,100358.09
2022-11-24T04:24:26.205Z,100362.38
2022-11-24T04:26:52.823Z,100358.88
2022-11-24T04:29:19.742Z,100369.25
2022-11-24T04:31:48.794Z,100380.56
2022-11-24T04:34:15.795Z,100379.66
2022-11-24T04:36:42.333Z,100382.25
2022-11-24T04:39:23.767Z,100389.13
2022-11-24T04:41:53.760Z,100389.94
2022-11-24T04:44:22.594Z,100388.19
2022-11-24T04:46:49.499Z,100395.03
2022-11-24T04:49:16.148Z,100402.97
2022-11-24T04:51:47.166Z,100409.91
2022-11-24T04:54:14.655Z,100412.50
2022-11-24T04:56:42.496Z,100417.69
2022-11-24T04:59:15.393Z,100416.97
2022-11-24T05:01:43.454Z,100427.41
2022-11-24T05:04:14.376Z,100426.56
2022-11-24T05:06:41.387Z,100425.72
2022-11-24T05:09:08.464Z,100433.50
2022-11-24T05:11:34.980Z,100439.56
2022-11-24T05:14:02.093Z,100443.88
2022-11-24T05:16:31.287Z,100447.38
2022-11-24T05:18:58.725Z,100447.38
2022-11-24T05:21:27.727Z,100453.47
2022-11-24T05:23:54.465Z,100468.13
2022-11-24T05:26:23.738Z,100476.81
2022-11-24T05:28:50.433Z,100481.13
2022-11-24T05:31:17.485Z,100492.41
2022-11-24T05:33:44.651Z,100484.56
2022-11-24T05:36:34.555Z,100484.56
2022-11-24T05:39:01.291Z,100488.03
2022-11-24T05:41:28.452Z,100496.63
2022-11-24T05:43:55.272Z,100505.28
2022-11-24T05:46:22.616Z,100503.44
2022-11-24T05:48:50.079Z,100502.53
2022-11-24T05:51:17.465Z,100515.53
2022-11-24T05:53:43.993Z,100518.94
2022-11-24T05:56:13.333Z,100522.34
2022-11-24T05:58:41.874Z,100536.16
2022-11-24T06:01:11.625Z,100539.59
2022-11-24T06:03:38.393Z,100543.84
2022-11-24T06:06:05.118Z,100547.28
2022-11-24T06:08:31.760Z,100556.81
2022-11-24T06:11:17.544Z,100561.09
2022-11-24T06:13:46.009Z,100560.19
2022-11-24T06:16:13.191Z,100568.84
2022-11-24T06:18:40.162Z,100567.09
2022-11-24T06:21:11.617Z,100576.59
2022-11-24T06:23:39.347Z,100584.34
2022-11-24T06:26:09.392Z,100586.94
2022-11-24T06:28:36.222Z,100584.34
2022-11-24T06:31:03.874Z,100593.00
2022-11-24T06:33:32.627Z,100596.38
2022-11-24T06:36:04.845Z,100604.19
2022-11-24T06:38:35.239Z,100602.41
2022-11-24T06:41:06.366Z,100611.97
2022-11-24T06:43:35.991Z,100613.66
2022-11-24T06:46:04.924Z,100619.75
2022-11-24T06:48:32.355Z,100627.53
2022-11-24T06:51:00.322Z,100617.97
2022-11-24T06:53:32.147Z,100635.34
2022-11-24T06:56:00.703Z,100633.53
2022-11-24T06:58:27.240Z,100641.28
2022-11-24T07:00:54.360Z,100647.31
2022-11-24T07:03:21.434Z,100643.88
2022-11-24T07:05:48.476Z,100653.38
2022-11-24T07:08:17.919Z,100658.47
2022-11-24T07:10:45.189Z,100667.09
2022-11-24T07:13:13.952Z,100669.59
2022-11-24T07:15:40.591Z,100666.03
2022-11-24T07:18:07.133Z,100682.44
2022-11-24T07:20:34.063Z,100675.44
2022-11-24T07:23:01.023Z,100698.81
2022-11-24T07:25:28.092Z,100691.91
2022-11-24T07:28:01.314Z,100694.47
2022-11-24T07:30:28.537Z,100701.41
2022-11-24T07:33:02.260Z,100701.41
2022-11-24T07:35:29.892Z,100704.94
2022-11-24T07:38:03.068Z,100704.09
2022-11-24T07:40:29.621Z,100703.25
2022-11-24T07:42:59.001Z,100706.69
2022-11-24T07:45:25.587Z,100711.91
2022-11-24T07:47:52.342Z,100728.38
2022-11-24T07:50:20.838Z,100737.88
2022-11-24T07:52:47.697Z,100746.59
2022-11-24T07:55:14.649Z,100747.47
2022-11-24T07:57:42.505Z,100743.94
2022-11-24T08:00:13.101Z,100763.03
2022-11-24T08:02:42.284Z,100756.97
2022-11-24T08:05:09.531Z,100763.94
2022-11-24T08:07:36.827Z,100770.88
2022-11-24T08:10:03.833Z,100782.16
2022-11-24T08:12:31.324Z,100780.44
2022-11-24T08:14:57.839Z,100793.47
2022-11-24T08:17:24.766Z,100793.53
2022-11-24T08:19:51.487Z,100797.94
2022-11-24T08:22:18.240Z,100799.72
2022-11-24T08:24:48.281Z,100793.78
2022-11-24T08:27:16.345Z,100793.00
2022-11-24T08:29:43.304Z,100792.16
2022-11-24T08:32:11.316Z,100797.53
2022-11-24T08:34:38.844Z,100807.25
2022-11-24T08:37:06.598Z,100803.97
2022-11-24T08:39:34.547Z,100806.63
2022-11-24T08:42:01.126Z,100805.75
2022-11-24T08:44:29.077Z,100810.16
2022-11-24T08:46:57.266Z,100815.38
2022-11-24T08:49:23.695Z,100822.41
2022-11-24T08:51:51.451Z,100816.47
2022-11-24T08:54:19.180Z,100821.94
2022-11-24T08:56:49.173Z,100823.78
2022-11-24T08:59:16.221Z,100831.00
2022-11-24T09:01:43.318Z,100833.75
2022-11-24T09:04:10.008Z,100833.84
2022-11-24T09:06:41.915Z,100841.69
2022-11-24T09:09:09.920Z,100837.25
2022-11-24T09:11:36.854Z,100838.91
2022-11-24T09:14:03.646Z,100844.84
2022-11-24T09:16:30.349Z,100847.94
2022-11-24T09:18:59.785Z,100853.25
2022-11-24T09:21:27.119Z,100864.09
2022-11-24T09:23:55.072Z,100857.59
2022-11-24T09:26:30.375Z,100870.53
2022-11-24T09:28:58.898Z,100861.91
2022-11-24T09:31:28.718Z,100867.72
2022-11-24T09:33:56.126Z,100866.88
2022-11-24T09:36:25.468Z,100871.38
2022-11-24T09:38:52.562Z,100870.28
2022-11-24T09:41:33.508Z,100875.00
2022-11-24T09:44:25.429Z,100887.56
2022-11-24T09:47:20.773Z,100884.28
2022-11-24T09:50:02.243Z,100890.56
2022-11-24T09:53:01.094Z,100888.09
2022-11-24T09:55:33.730Z,100898.69
2022-11-24T09:58:12.066Z,100902.22
2022-11-24T10:00:39.852Z,100904.88
2022-11-24T10:03:08.793Z,100909.97
2022-11-24T10:05:36.372Z,100905.53
2022-11-24T10:08:41.595Z,100918.59
2022-11-24T10:11:17.109Z,100918.56
2022-11-24T10:14:04.999Z,100929.91
2022-11-24T10:17:08.357Z,100933.06
2022-11-24T10:19:41.239Z,100926.75
2022-11-24T10:22:46.964Z,100929.31
2022-11-24T10:25:19.237Z,100937.97
2022-11-24T10:27:50.456Z,100947.81
2022-11-24T10:30:26.276Z,100948.66
2022-11-24T10:33:00.686Z,100950.84
2022-11-24T10:35:38.757Z,100959.66
2022-11-24T10:38:19.901Z,100966.09
2022-11-24T10:40:57.858Z,100961.38
2022-11-24T10:43:28.507Z,100963.25
2022-11-24T10:46:19.326Z,100956.75
2022-11-24T10:49:05.244Z,100965.91
2022-11-24T10:51:39.158Z,100969.59
2022-11-24T10:54:21.727Z,100972.28
2022-11-24T10:56:53.566Z,100977.50
2022-11-24T10:59:21.724Z,100976.66
2022-11-24T11:01:48.602Z,100981.91
2022-11-24T11:04:21.633Z,100988.00
2022-11-24T11:06:48.329Z,100980.16
2022-11-24T11:09:14.759Z,100981.13
2022-11-24T11:11:42.964Z,100990.69
2022-11-24T11:14:12.288Z,100996.50
2022-11-24T11:16:45.937Z,100995.03
2022-11-24T11:19:48.865Z,100992.75
2022-11-24T11:22:24.555Z,100996.88
2022-11-24T11:25:11.185Z,100980.59
2022-11-24T11:27:39.626Z,100983.78
2022-11-24T11:36:14.717Z,100987.53
2022-11-24T11:38:42.841Z,100990.03
2022-11-24T11:41:21.091Z,100986.38
2022-11-24T11:43:55.053Z,100989.03
2022-11-24T11:46:22.083Z,100977.59
2022-11-24T11:48:49.667Z,100981.00
2022-11-24T11:51:58.079Z,100982.59
2022-11-24T11:54:57.807Z,100978.81
2022-11-24T11:57:51.137Z,100977.72
2022-11-24T12:00:23.300Z,100984.50
2022-11-24T12:03:32.504Z,100993.94
2022-11-24T12:06:21.940Z,100982.41
2022-11-24T12:09:19.967Z,101002.38
2022-11-24T12:12:29.848Z,100997.00
2022-11-24T12:15:23.692Z,100996.19
2022-11-24T12:18:40.210Z,100991.13
2022-11-24T12:21:07.077Z,100991.28
2022-11-24T12:23:59.247Z,100984.28
2022-11-24T12:26:42.985Z,100990.31
2022-11-24T13:14:19.449Z,101007.47
2022-11-24T13:17:27.985Z,101012.88
2022-11-24T13:19:47.237Z,101015.47
2022-11-24T13:22:25.109Z,101017.28
2022-11-24T13:25:10.918Z,101013.91
2022-11-24T13:27:43.071Z,101013.88
2022-11-24T13:30:51.595Z,101011.13
2022-11-24T13:33:28.712Z,101013.75
2022-11-24T13:36:07.903Z,101018.13
2022-11-24T13:38:46.782Z,101005.78
2022-11-24T13:41:32.077Z,101010.91
2022-11-24T13:44:17.634Z,101012.41
2022-11-24T13:47:04.773Z,101007.03
2022-11-24T13:49:39.598Z,101009.72
2022-11-24T13:52:38.467Z,101002.72
2022-11-24T13:55:13.844Z,100998.25
2022-11-24T13:57:53.616Z,101007.72
2022-11-24T14:00:26.395Z,101015.53
2022-11-24T14:02:55.861Z,101009.38
2022-11-24T14:05:30.246Z,101011.94
2022-11-24T14:07:57.381Z,101005.59
2022-11-24T14:10:32.518Z,100998.25
2022-11-24T14:13:18.540Z,101004.97
2022-11-24T14:15:45.482Z,101006.56
2022-11-24T14:18:24.229Z,101002.03
2022-11-24T14:20:52.242Z,100995.75
2022-11-24T14:23:18.726Z,100999.97
2022-11-24T14:25:49.986Z,100995.50
2022-11-24T14:28:23.056Z,101003.13
2022-11-24T14:30:49.716Z,100997.03
2022-11-24T14:33:20.092Z,100995.94
2022-11-24T14:35:50.466Z,100987.03
2022-11-24T14:38:20.011Z,100992.00
2022-11-24T14:40:50.539Z,100988.31
2022-11-24T14:43:28.075Z,100991.63
2022-11-24T14:46:04.038Z,100993.28
2022-11-24T14:48:36.008Z,101005.28
2022-11-24T14:51:38.472Z,101007.66
2022-11-24T14:54:14.889Z,101000.41
2022-11-24T14:56:42.217Z,101001.84
2022-11-24T14:59:23.269Z,100998.13
2022-11-24T15:01:52.610Z,100996.16
2022-11-24T15:07:17.522Z,101000.13
2022-11-24T15:09:47.252Z,101001.75
2022-11-24T15:12:34.934Z,101012.94
2022-11-24T15:15:02.824Z,101009.38
2022-11-24T15:17:31.557Z,101009.28
2022-11-24T15:20:03.068Z,101012.66
2022-11-24T15:22:29.862Z,101020.38
2022-11-24T15:24:57.027Z,101004.66
2022-11-24T15:27:24.365Z,101013.28
2022-11-24T15:29:53.310Z,101012.41
2022-11-24T15:32:20.035Z,101008.97
2022-11-24T15:34:47.000Z,101018.44
2022-11-24T15:37:13.967Z,101021.81
2022-11-24T15:39:41.289Z,101024.41
2022-11-24T15:42:11.753Z,101019.03
2022-11-24T15:44:38.412Z,101027.69
2022-11-24T15:47:05.596Z,101022.38
2022-11-24T15:49:36.487Z,101025.75
2022-11-24T15:52:03.145Z,101017.69
2022-11-24T15:54:29.967Z,101020.34
2022-11-24T15:56:56.936Z,101025.44
2022-11-24T15:59:27.231Z,101021.94
2022-11-24T16:01:54.557Z,101027.16
2022-11-24T16:04:21.263Z,101027.09
2022-11-24T16:06:50.331Z,101016.69
2022-11-24T16:09:17.660Z,101020.94
2022-11-24T16:11:47.264Z,101012.22
2022-11-24T16:14:14.326Z,101020.88
2022-11-24T16:16:41.733Z,101014.78
2022-11-24T16:19:09.913Z,101012.09
2022-11-24T16:21:36.406Z,101015.59
2022-11-24T16:24:03.888Z,101003.44
2022-11-24T16:26:30.816Z,101018.13
2022-11-24T16:29:00.501Z,101020.75
2022-11-24T16:31:28.087Z,101015.50
2022-11-24T16:33:54.674Z,101019.78
2022-11-24T16:36:23.805Z,101023.25
2022-11-24T16:38:51.224Z,101025.69
2022-11-24T16:41:17.770Z,101022.97
2022-11-24T16:43:46.376Z,101028.97
2022-11-24T16:46:22.063Z,101040.16
2022-11-24T16:48:51.572Z,101037.50
2022-11-24T16:51:21.333Z,101026.94
2022-11-24T16:53:48.761Z,101024.28
2022-11-24T16:56:16.721Z,101017.31
2022-11-24T16:58:43.667Z,101024.19
2022-11-24T17:01:12.786Z,101022.31
2022-11-24T17:03:40.163Z,101024.72
2022-11-24T17:06:09.103Z,101019.34
2022-11-24T17:08:38.583Z,101022.78
2022-11-24T17:11:11.443Z,101027.03
2022-11-24T17:13:38.956Z,101022.69
2022-11-24T17:16:07.724Z,101020.81
2022-11-24T17:18:42.242Z,101024.34
2022-11-24T17:21:15.503Z,101018.28
2022-11-24T17:23:42.860Z,101019.03
2022-11-24T17:26:14.562Z,101028.63
2022-11-24T17:28:42.624Z,101023.53
2022-11-24T17:31:16.938Z,101015.84
2022-11-24T17:33:43.594Z,101016.75
2022-11-24T17:36:10.293Z,101022.84
2022-11-24T17:38:37.778Z,101024.69
2022-11-24T17:41:05.454Z,101018.69
2022-11-24T17:43:33.100Z,101028.22
2022-11-24T17:46:02.003Z,101020.34
2022-11-24T17:48:32.438Z,101020.34
2022-11-24T17:51:01.152Z,101020.34
2022-11-24T17:53:28.471Z,101025.47
2022-11-24T17:55:58.778Z,101022.78
2022-11-24T17:58:30.210Z,101022.69
2022-11-24T18:00:57.901Z,101030.50
2022-11-24T18:03:28.745Z,101027.84
2022-11-24T18:05:56.113Z,101023.44
2022-11-24T18:08:24.274Z,101027.72
2022-11-24T18:10:51.354Z,101023.31
2022-11-24T18:13:40.618Z,101025.91
2022-11-24T18:16:07.767Z,101012.88
2022-11-24T18:18:39.313Z,101032.03
2022-11-24T18:21:12.386Z,101043.34
2022-11-24T18:23:39.628Z,101039.94
2022-11-24T18:26:08.932Z,101035.63
2022-11-24T18:28:35.536Z,101029.50
2022-11-24T18:31:10.225Z,101034.91
2022-11-24T18:33:41.403Z,101018.50
2022-11-24T18:36:10.727Z,101028.13
2022-11-24T18:38:37.519Z,101027.31
2022-11-24T18:41:08.985Z,101008.25
2022-11-24T18:43:38.456Z,101010.78
2022-11-24T18:46:11.904Z,101013.50
2022-11-24T18:48:39.027Z,101015.16
2022-11-24T18:51:06.225Z,101008.09
2022-11-24T18:53:33.060Z,101003.69
2022-11-24T18:56:02.639Z,101007.91
2022-11-24T18:58:31.079Z,101007.72
2022-11-24T19:01:21.490Z,101018.91
2022-11-24T19:03:52.609Z,101011.97
2022-11-24T19:06:28.847Z,101006.69
2022-11-24T19:08:55.684Z,100999.69
2022-11-24T19:11:25.742Z,100995.25
2022-11-24T19:13:57.856Z,101002.22
2022-11-24T19:16:27.726Z,101001.34
2022-11-24T19:18:57.559Z,101003.03
2022-11-24T19:21:26.307Z,100996.03
2022-11-24T19:23:53.705Z,100995.13
2022-11-24T19:26:20.533Z,101004.69
2022-11-24T19:28:49.498Z,100998.53
2022-11-24T19:31:18.395Z,100997.44
2022-11-24T19:33:46.063Z,100993.94
2022-11-24T19:36:20.963Z,100986.94
2022-11-24T19:38:52.844Z,100983.38
2022-11-24T19:41:21.103Z,100988.53
2022-11-24T19:43:48.617Z,100984.22
2022-11-24T19:46:18.556Z,100977.28
2022-11-24T19:48:48.833Z,100983.28
2022-11-24T19:51:20.086Z,100987.56
2022-11-24T19:53:49.415Z,100992.78
2022-11-24T19:56:22.244Z,100990.09
2022-11-24T19:58:49.531Z,100996.94
2022-11-24T20:01:49.855Z,100986.38
2022-11-24T20:04:17.346Z,100994.16
2022-11-24T20:06:48.104Z,100994.91
2022-11-24T20:09:17.609Z,100994.06
2022-11-24T20:11:48.886Z,100989.66
2022-11-24T20:14:20.053Z,100998.31
2022-11-24T20:16:48.527Z,101003.41
2022-11-24T20:19:17.066Z,101003.31
2022-11-24T20:21:49.707Z,100999.81
2022-11-24T20:24:22.851Z,100996.31
2022-11-24T20:26:54.911Z,100990.31
2022-11-24T20:29:21.912Z,100996.31
2022-11-24T20:31:50.920Z,100996.38
2022-11-24T20:34:18.817Z,100989.38
2022-11-24T20:36:47.656Z,100991.97
2022-11-24T20:39:19.207Z,100980.66
2022-11-24T20:41:51.544Z,100986.66
2022-11-24T20:44:23.333Z,100990.28
2022-11-24T20:46:50.536Z,100978.19
2022-11-24T20:49:20.640Z,100985.16
2022-11-24T20:51:47.864Z,100990.50
2022-11-24T20:54:19.699Z,100976.88
2022-11-24T20:56:47.482Z,100978.75
2022-11-24T20:59:16.850Z,100987.56
2022-11-24T21:01:46.904Z,100993.84
2022-11-24T21:04:18.756Z,100993.00
2022-11-24T21:06:48.675Z,100981.69
2022-11-24T21:09:15.684Z,100990.44
2022-11-24T21:11:43.080Z,100985.97
2022-11-24T21:14:10.669Z,100985.94
2022-11-24T21:16:38.972Z,100988.47
2022-11-24T21:19:11.750Z,100988.47
2022-11-24T21:21:39.876Z,100985.03
2022-11-24T21:24:15.147Z,100988.56
2022-11-24T21:26:43.140Z,100979.09
2022-11-24T21:29:14.119Z,100983.47
2022-11-24T21:31:41.492Z,100970.53
2022-11-24T21:34:08.931Z,100954.00
2022-11-24T21:36:35.923Z,100969.63
2022-11-24T21:39:04.390Z,100962.75
2022-11-24T21:41:34.635Z,100967.94
2022-11-24T21:44:01.660Z,100967.97
2022-11-24T21:46:30.352Z,100960.94
2022-11-24T21:48:56.959Z,100955.69
2022-11-24T21:51:23.474Z,100962.59
2022-11-24T21:53:50.029Z,100951.22
2022-11-24T21:56:19.203Z,100956.38
2022-11-24T21:58:52.247Z,100957.28
2022-11-24T22:01:25.255Z,100947.72
2022-11-24T22:03:52.779Z,100945.16
2022-11-24T22:06:22.422Z,100942.53
2022-11-24T22:08:54.528Z,100938.91
2022-11-24T22:11:23.722Z,100946.72
2022-11-24T22:13:51.490Z,100942.38
2022-11-24T22:16:20.957Z,100938.06
2022-11-24T22:18:50.613Z,100941.56
2022-11-24T22:21:23.910Z,100928.53
2022-11-24T22:23:52.897Z,100927.78
2022-11-24T22:26:22.129Z,100928.72
2022-11-24T22:28:49.037Z,100926.97
2022-11-24T22:31:23.964Z,100938.22
2022-11-24T22:33:56.786Z,100941.72
2022-11-24T22:36:28.860Z,100933.81
2022-11-24T22:39:00.443Z,100937.38
2022-11-24T22:41:27.676Z,100939.13
2022-11-24T22:43:54.607Z,100940.88
2022-11-24T22:46:24.191Z,100936.63
2022-11-24T22:48:55.924Z,100927.16
2022-11-24T22:51:29.744Z,100929.78
2022-11-24T22:53:58.402Z,100933.34
2022-11-24T22:56:25.391Z,100932.44
2022-11-24T22:58:52.036Z,100937.66
2022-11-24T23:01:23.144Z,100931.50
2022-11-24T23:03:51.263Z,100938.38
2022-11-24T23:06:23.414Z,100937.53
2022-11-24T23:08:51.682Z,100944.53
2022-11-24T23:11:20.340Z,100941.97
2022-11-24T23:13:51.942Z,100936.75
2022-11-24T23:16:19.164Z,100938.59
2022-11-24T23:18:52.364Z,100938.66
2022-11-24T23:21:23.442Z,100936.00
2022-11-24T23:23:50.932Z,100933.41
2022-11-24T23:26:23.441Z,100933.41
2022-11-24T23:28:50.178Z,100931.66
2022-11-24T23:31:19.308Z,100929.06
2022-11-24T23:33:48.380Z,100928.19
2022-11-24T23:36:17.148Z,100928.19
2022-11-24T23:38:47.820Z,100927.25
2022-11-24T23:41:18.162Z,100917.75
2022-11-24T23:43:46.544Z,100918.72
2022-11-24T23:46:17.377Z,100910.91
2022-11-24T23:48:45.821Z,100919.59
2022-11-24T23:51:19.516Z,100909.19
2022-11-24T23:53:46.477Z,100910.84
2022-11-24T23:56:15.873Z,100913.34
2022-11-24T23:58:43.233Z,100915.88
